Ridgeville, Alabama
Current Conditions -  °F | °C
As of 4:15 PM on Monday 20 Oct 2014 (Local Time) from KGAD Reporting Station
Clear Clear  
Wind Chill: 23°   Ceiling: Unl
Heat Index: 23°   Visibility: 10mi
Dew Point:   Wind: 5mph
Humidity: 41%   Direction: 230°SW
Pressure: 29.99"   Gusts: NA
Location:  34.0771°N, 86.0689°W
Report Text: KGAD 202115Z 23004KT 10SM CLR 23/09 A2999 RMK AO1
Loading
Personal Weather Stations






























Interactive Weather Map
Tropical Storm Tracking
New forecast layout! Learn more

10-Day Weather Forecast

Advertisements
Track Severe Weather on mobile